sensor_id;sensor_type;location;lat;lon;timestamp;P1;durP1;ratioP1;P2;durP2;ratioP2
44572;SDS011;31762;45.420;10.072;2022-07-10T00:00:46;3.33;;;1.42;;
44572;SDS011;31762;45.420;10.072;2022-07-10T00:05:48;1.50;;;1.40;;
44572;SDS011;31762;45.420;10.072;2022-07-10T00:10:49;2.67;;;1.30;;
44572;SDS011;31762;45.420;10.072;2022-07-10T00:15:51;1.17;;;0.87;;
44572;SDS011;31762;45.420;10.072;2022-07-10T00:20:53;1.98;;;1.10;;
44572;SDS011;31762;45.420;10.072;2022-07-10T00:25:55;2.65;;;1.40;;
44572;SDS011;31762;45.420;10.072;2022-07-10T00:30:57;1.77;;;1.33;;
44572;SDS011;31762;45.420;10.072;2022-07-10T00:35:58;1.30;;;1.20;;
44572;SDS011;31762;45.420;10.072;2022-07-10T00:41:00;3.50;;;1.10;;
44572;SDS011;31762;45.420;10.072;2022-07-10T00:46:02;1.60;;;1.20;;
44572;SDS011;31762;45.420;10.072;2022-07-10T00:51:04;1.47;;;1.20;;
44572;SDS011;31762;45.420;10.072;2022-07-10T00:56:06;2.80;;;1.08;;
44572;SDS011;31762;45.420;10.072;2022-07-10T01:01:08;1.60;;;1.00;;
44572;SDS011;31762;45.420;10.072;2022-07-10T01:06:10;1.75;;;0.85;;
44572;SDS011;31762;45.420;10.072;2022-07-10T01:11:13;2.85;;;1.25;;
44572;SDS011;31762;45.420;10.072;2022-07-10T01:16:15;2.90;;;1.10;;
44572;SDS011;31762;45.420;10.072;2022-07-10T01:26:26;2.05;;;1.20;;
44572;SDS011;31762;45.420;10.072;2022-07-10T01:31:28;1.55;;;1.10;;
44572;SDS011;31762;45.420;10.072;2022-07-10T01:36:30;2.83;;;1.10;;
44572;SDS011;31762;45.420;10.072;2022-07-10T01:41:32;2.42;;;1.40;;
44572;SDS011;31762;45.420;10.072;2022-07-10T01:46:35;3.30;;;1.13;;
44572;SDS011;31762;45.420;10.072;2022-07-10T01:51:43;2.70;;;1.90;;
44572;SDS011;31762;45.420;10.072;2022-07-10T01:56:45;2.10;;;1.20;;
44572;SDS011;31762;45.420;10.072;2022-07-10T02:01:47;1.90;;;1.60;;
44572;SDS011;31762;45.420;10.072;2022-07-10T02:06:48;1.77;;;1.40;;
44572;SDS011;31762;45.420;10.072;2022-07-10T02:11:50;9.23;;;1.80;;
44572;SDS011;31762;45.420;10.072;2022-07-10T02:16:52;2.97;;;1.30;;
44572;SDS011;31762;45.420;10.072;2022-07-10T02:21:54;2.10;;;1.30;;
44572;SDS011;31762;45.420;10.072;2022-07-10T02:26:56;2.50;;;1.45;;
44572;SDS011;31762;45.420;10.072;2022-07-10T02:31:58;3.43;;;1.50;;
44572;SDS011;31762;45.420;10.072;2022-07-10T02:37:00;3.30;;;1.60;;
44572;SDS011;31762;45.420;10.072;2022-07-10T02:42:02;1.87;;;1.70;;
44572;SDS011;31762;45.420;10.072;2022-07-10T02:47:04;3.55;;;1.42;;
44572;SDS011;31762;45.420;10.072;2022-07-10T02:52:06;1.50;;;1.27;;
44572;SDS011;31762;45.420;10.072;2022-07-10T02:57:08;3.80;;;1.47;;
44572;SDS011;31762;45.420;10.072;2022-07-10T03:02:10;2.00;;;1.80;;
44572;SDS011;31762;45.420;10.072;2022-07-10T03:07:11;3.92;;;1.80;;
44572;SDS011;31762;45.420;10.072;2022-07-10T03:12:13;3.42;;;1.80;;
44572;SDS011;31762;45.420;10.072;2022-07-10T03:17:15;2.13;;;1.30;;
44572;SDS011;31762;45.420;10.072;2022-07-10T03:22:17;1.90;;;1.50;;
44572;SDS011;31762;45.420;10.072;2022-07-10T03:27:18;2.73;;;1.40;;
44572;SDS011;31762;45.420;10.072;2022-07-10T03:32:20;2.25;;;1.42;;
44572;SDS011;31762;45.420;10.072;2022-07-10T03:37:22;4.70;;;1.63;;
44572;SDS011;31762;45.420;10.072;2022-07-10T03:42:24;1.92;;;1.33;;
44572;SDS011;31762;45.420;10.072;2022-07-10T03:47:26;1.90;;;1.40;;
44572;SDS011;31762;45.420;10.072;2022-07-10T03:52:28;1.80;;;1.55;;
44572;SDS011;31762;45.420;10.072;2022-07-10T03:57:30;3.20;;;1.65;;
44572;SDS011;31762;45.420;10.072;2022-07-10T04:02:32;2.95;;;1.80;;
44572;SDS011;31762;45.420;10.072;2022-07-10T04:07:34;2.58;;;2.10;;
44572;SDS011;31762;45.420;10.072;2022-07-10T04:12:36;2.80;;;1.73;;
44572;SDS011;31762;45.420;10.072;2022-07-10T04:17:38;2.67;;;1.70;;
44572;SDS011;31762;45.420;10.072;2022-07-10T04:22:40;2.95;;;1.80;;
44572;SDS011;31762;45.420;10.072;2022-07-10T04:27:42;2.17;;;1.50;;
44572;SDS011;31762;45.420;10.072;2022-07-10T04:32:43;2.28;;;1.67;;
44572;SDS011;31762;45.420;10.072;2022-07-10T04:37:45;4.68;;;1.60;;
44572;SDS011;31762;45.420;10.072;2022-07-10T04:42:47;1.90;;;1.10;;
44572;SDS011;31762;45.420;10.072;2022-07-10T04:47:48;1.90;;;1.30;;
44572;SDS011;31762;45.420;10.072;2022-07-10T04:52:50;2.33;;;1.17;;
44572;SDS011;31762;45.420;10.072;2022-07-10T04:57:52;2.95;;;1.42;;
44572;SDS011;31762;45.420;10.072;2022-07-10T05:02:54;1.75;;;1.27;;
44572;SDS011;31762;45.420;10.072;2022-07-10T05:07:56;3.60;;;1.57;;
44572;SDS011;31762;45.420;10.072;2022-07-10T05:12:57;2.67;;;1.53;;
44572;SDS011;31762;45.420;10.072;2022-07-10T05:17:59;2.85;;;1.35;;
44572;SDS011;31762;45.420;10.072;2022-07-10T05:23:01;3.25;;;1.38;;
44572;SDS011;31762;45.420;10.072;2022-07-10T05:28:03;3.53;;;1.90;;
44572;SDS011;31762;45.420;10.072;2022-07-10T05:33:05;2.97;;;1.80;;
44572;SDS011;31762;45.420;10.072;2022-07-10T05:38:07;1.90;;;1.30;;
44572;SDS011;31762;45.420;10.072;2022-07-10T05:43:09;2.50;;;1.25;;
44572;SDS011;31762;45.420;10.072;2022-07-10T05:48:11;1.90;;;0.98;;
44572;SDS011;31762;45.420;10.072;2022-07-10T05:53:13;1.40;;;0.80;;
44572;SDS011;31762;45.420;10.072;2022-07-10T05:58:17;1.25;;;0.75;;
44572;SDS011;31762;45.420;10.072;2022-07-10T06:03:19;3.10;;;0.70;;
44572;SDS011;31762;45.420;10.072;2022-07-10T06:08:21;1.20;;;0.90;;
44572;SDS011;31762;45.420;10.072;2022-07-10T06:13:23;1.33;;;0.70;;
44572;SDS011;31762;45.420;10.072;2022-07-10T06:18:24;1.63;;;0.67;;
44572;SDS011;31762;45.420;10.072;2022-07-10T06:23:26;2.17;;;0.70;;
44572;SDS011;31762;45.420;10.072;2022-07-10T06:28:28;2.10;;;0.73;;
44572;SDS011;31762;45.420;10.072;2022-07-10T06:33:30;0.98;;;0.52;;
44572;SDS011;31762;45.420;10.072;2022-07-10T06:38:32;1.67;;;0.70;;
44572;SDS011;31762;45.420;10.072;2022-07-10T06:43:34;1.90;;;0.80;;
44572;SDS011;31762;45.420;10.072;2022-07-10T06:48:36;1.75;;;0.88;;
44572;SDS011;31762;45.420;10.072;2022-07-10T06:53:38;0.85;;;0.60;;
44572;SDS011;31762;45.420;10.072;2022-07-10T06:58:40;1.07;;;0.50;;
44572;SDS011;31762;45.420;10.072;2022-07-10T07:03:42;4.38;;;0.73;;
44572;SDS011;31762;45.420;10.072;2022-07-10T07:08:44;1.10;;;0.60;;
44572;SDS011;31762;45.420;10.072;2022-07-10T07:13:46;0.47;;;0.40;;
44572;SDS011;31762;45.420;10.072;2022-07-10T07:18:47;1.55;;;0.80;;
44572;SDS011;31762;45.420;10.072;2022-07-10T07:23:49;1.43;;;0.70;;
44572;SDS011;31762;45.420;10.072;2022-07-10T07:28:51;0.90;;;0.55;;
44572;SDS011;31762;45.420;10.072;2022-07-10T07:33:52;1.00;;;0.50;;
44572;SDS011;31762;45.420;10.072;2022-07-10T07:38:54;0.90;;;0.50;;
44572;SDS011;31762;45.420;10.072;2022-07-10T07:43:56;1.30;;;0.98;;
44572;SDS011;31762;45.420;10.072;2022-07-10T07:48:58;1.00;;;0.32;;
44572;SDS011;31762;45.420;10.072;2022-07-10T07:53:59;0.77;;;0.30;;
44572;SDS011;31762;45.420;10.072;2022-07-10T07:59:01;1.08;;;0.43;;
44572;SDS011;31762;45.420;10.072;2022-07-10T08:04:03;2.33;;;0.40;;
44572;SDS011;31762;45.420;10.072;2022-07-10T08:09:10;1.40;;;0.40;;
44572;SDS011;31762;45.420;10.072;2022-07-10T08:14:12;2.15;;;0.50;;
44572;SDS011;31762;45.420;10.072;2022-07-10T08:19:14;0.65;;;0.28;;
44572;SDS011;31762;45.420;10.072;2022-07-10T08:24:16;0.87;;;0.20;;
44572;SDS011;31762;45.420;10.072;2022-07-10T08:29:18;0.45;;;0.30;;
44572;SDS011;31762;45.420;10.072;2022-07-10T08:34:19;1.00;;;0.50;;
44572;SDS011;31762;45.420;10.072;2022-07-10T08:39:21;1.30;;;0.50;;
44572;SDS011;31762;45.420;10.072;2022-07-10T08:44:23;2.35;;;0.80;;
44572;SDS011;31762;45.420;10.072;2022-07-10T08:49:26;1.50;;;0.60;;
44572;SDS011;31762;45.420;10.072;2022-07-10T08:54:30;0.45;;;0.35;;
44572;SDS011;31762;45.420;10.072;2022-07-10T08:59:32;0.38;;;0.28;;
44572;SDS011;31762;45.420;10.072;2022-07-10T09:04:34;0.70;;;0.40;;
44572;SDS011;31762;45.420;10.072;2022-07-10T09:10:04;0.50;;;0.30;;
44572;SDS011;31762;45.420;10.072;2022-07-10T09:15:14;0.98;;;0.60;;
44572;SDS011;31762;45.420;10.072;2022-07-10T09:25:32;1.20;;;0.50;;
44572;SDS011;31762;45.420;10.072;2022-07-10T09:35:37;1.50;;;0.50;;
44572;SDS011;31762;45.420;10.072;2022-07-10T09:40:54;1.00;;;0.57;;
44572;SDS011;31762;45.420;10.072;2022-07-10T09:45:56;1.75;;;0.70;;
44572;SDS011;31762;45.420;10.072;2022-07-10T09:50:57;0.60;;;0.22;;
44572;SDS011;31762;45.420;10.072;2022-07-10T09:55:59;1.17;;;0.70;;
44572;SDS011;31762;45.420;10.072;2022-07-10T10:01:03;3.47;;;0.93;;
44572;SDS011;31762;45.420;10.072;2022-07-10T10:06:16;3.00;;;1.33;;
44572;SDS011;31762;45.420;10.072;2022-07-10T10:11:19;0.88;;;0.60;;
44572;SDS011;31762;45.420;10.072;2022-07-10T10:16:22;0.50;;;0.30;;
44572;SDS011;31762;45.420;10.072;2022-07-10T10:21:26;1.10;;;0.40;;
44572;SDS011;31762;45.420;10.072;2022-07-10T10:26:29;0.70;;;0.50;;
44572;SDS011;31762;45.420;10.072;2022-07-10T10:31:31;1.13;;;0.43;;
44572;SDS011;31762;45.420;10.072;2022-07-10T10:41:39;0.70;;;0.40;;
44572;SDS011;31762;45.420;10.072;2022-07-10T10:57:15;0.80;;;0.60;;
44572;SDS011;31762;45.420;10.072;2022-07-10T11:13:00;0.70;;;0.30;;
44572;SDS011;31762;45.420;10.072;2022-07-10T11:18:03;1.27;;;0.55;;
44572;SDS011;31762;45.420;10.072;2022-07-10T11:33:53;2.50;;;0.60;;
44572;SDS011;31762;45.420;10.072;2022-07-10T11:38:57;1.43;;;0.63;;
44572;SDS011;31762;45.420;10.072;2022-07-10T11:44:00;0.50;;;0.35;;
44572;SDS011;31762;45.420;10.072;2022-07-10T11:49:04;0.50;;;0.32;;
44572;SDS011;31762;45.420;10.072;2022-07-10T11:54:07;2.60;;;0.40;;
44572;SDS011;31762;45.420;10.072;2022-07-10T11:59:11;1.67;;;0.73;;
44572;SDS011;31762;45.420;10.072;2022-07-10T12:04:15;0.50;;;0.38;;
44572;SDS011;31762;45.420;10.072;2022-07-10T12:09:18;0.60;;;0.30;;
44572;SDS011;31762;45.420;10.072;2022-07-10T12:14:21;4.40;;;0.60;;
44572;SDS011;31762;45.420;10.072;2022-07-10T12:19:30;0.73;;;0.30;;
44572;SDS011;31762;45.420;10.072;2022-07-10T12:24:37;0.73;;;0.30;;
44572;SDS011;31762;45.420;10.072;2022-07-10T12:29:39;1.90;;;0.70;;
44572;SDS011;31762;45.420;10.072;2022-07-10T12:34:42;0.55;;;0.40;;
44572;SDS011;31762;45.420;10.072;2022-07-10T12:39:52;0.88;;;0.50;;
44572;SDS011;31762;45.420;10.072;2022-07-10T12:45:08;0.90;;;0.30;;
44572;SDS011;31762;45.420;10.072;2022-07-10T12:50:13;0.88;;;0.32;;
44572;SDS011;31762;45.420;10.072;2022-07-10T12:55:16;0.85;;;0.30;;
44572;SDS011;31762;45.420;10.072;2022-07-10T13:05:25;0.90;;;0.40;;
44572;SDS011;31762;45.420;10.072;2022-07-10T13:10:27;0.90;;;0.37;;
44572;SDS011;31762;45.420;10.072;2022-07-10T13:15:29;0.50;;;0.25;;
44572;SDS011;31762;45.420;10.072;2022-07-10T13:20:31;0.47;;;0.30;;
44572;SDS011;31762;45.420;10.072;2022-07-10T13:25:32;1.47;;;0.50;;
44572;SDS011;31762;45.420;10.072;2022-07-10T13:30:35;0.60;;;0.40;;
44572;SDS011;31762;45.420;10.072;2022-07-10T13:35:37;1.75;;;0.40;;
44572;SDS011;31762;45.420;10.072;2022-07-10T13:40:38;1.00;;;0.30;;
44572;SDS011;31762;45.420;10.072;2022-07-10T13:45:40;1.38;;;0.57;;
44572;SDS011;31762;45.420;10.072;2022-07-10T13:50:42;1.00;;;0.40;;
44572;SDS011;31762;45.420;10.072;2022-07-10T13:55:45;0.95;;;0.47;;
44572;SDS011;31762;45.420;10.072;2022-07-10T14:00:47;0.65;;;0.40;;
44572;SDS011;31762;45.420;10.072;2022-07-10T14:05:49;1.00;;;0.40;;
44572;SDS011;31762;45.420;10.072;2022-07-10T14:10:51;2.38;;;0.47;;
44572;SDS011;31762;45.420;10.072;2022-07-10T14:15:53;1.30;;;0.40;;
44572;SDS011;31762;45.420;10.072;2022-07-10T14:20:54;1.83;;;0.43;;
44572;SDS011;31762;45.420;10.072;2022-07-10T14:25:56;0.80;;;0.40;;
44572;SDS011;31762;45.420;10.072;2022-07-10T14:30:58;0.90;;;0.30;;
44572;SDS011;31762;45.420;10.072;2022-07-10T14:36:00;0.33;;;0.20;;
44572;SDS011;31762;45.420;10.072;2022-07-10T14:41:03;1.23;;;0.40;;
44572;SDS011;31762;45.420;10.072;2022-07-10T14:46:05;1.90;;;0.87;;
44572;SDS011;31762;45.420;10.072;2022-07-10T14:51:07;0.60;;;0.20;;
44572;SDS011;31762;45.420;10.072;2022-07-10T14:56:08;1.38;;;0.43;;
44572;SDS011;31762;45.420;10.072;2022-07-10T15:01:10;0.82;;;0.30;;
44572;SDS011;31762;45.420;10.072;2022-07-10T15:06:12;0.55;;;0.30;;
44572;SDS011;31762;45.420;10.072;2022-07-10T15:11:14;0.73;;;0.30;;
44572;SDS011;31762;45.420;10.072;2022-07-10T15:16:17;2.85;;;0.60;;
44572;SDS011;31762;45.420;10.072;2022-07-10T15:21:19;1.20;;;0.47;;
44572;SDS011;31762;45.420;10.072;2022-07-10T15:26:21;0.47;;;0.40;;
44572;SDS011;31762;45.420;10.072;2022-07-10T15:31:23;0.37;;;0.30;;
44572;SDS011;31762;45.420;10.072;2022-07-10T15:36:25;0.63;;;0.40;;
44572;SDS011;31762;45.420;10.072;2022-07-10T15:41:27;0.85;;;0.30;;
44572;SDS011;31762;45.420;10.072;2022-07-10T15:46:28;0.30;;;0.20;;
44572;SDS011;31762;45.420;10.072;2022-07-10T15:51:30;1.30;;;0.40;;
44572;SDS011;31762;45.420;10.072;2022-07-10T15:56:32;1.70;;;0.30;;
44572;SDS011;31762;45.420;10.072;2022-07-10T16:01:39;0.38;;;0.20;;
44572;SDS011;31762;45.420;10.072;2022-07-10T16:06:41;0.27;;;0.20;;
44572;SDS011;31762;45.420;10.072;2022-07-10T16:11:43;1.30;;;0.20;;
44572;SDS011;31762;45.420;10.072;2022-07-10T16:16:45;1.35;;;0.25;;
44572;SDS011;31762;45.420;10.072;2022-07-10T16:21:47;0.60;;;0.20;;
44572;SDS011;31762;45.420;10.072;2022-07-10T16:26:49;1.20;;;0.70;;
44572;SDS011;31762;45.420;10.072;2022-07-10T16:31:51;2.50;;;0.40;;
44572;SDS011;31762;45.420;10.072;2022-07-10T16:36:53;0.47;;;0.25;;
44572;SDS011;31762;45.420;10.072;2022-07-10T16:41:55;0.87;;;0.30;;
44572;SDS011;31762;45.420;10.072;2022-07-10T16:46:57;0.40;;;0.20;;
44572;SDS011;31762;45.420;10.072;2022-07-10T16:51:59;0.63;;;0.30;;
44572;SDS011;31762;45.420;10.072;2022-07-10T16:57:01;1.80;;;0.30;;
44572;SDS011;31762;45.420;10.072;2022-07-10T17:02:02;1.65;;;0.45;;
44572;SDS011;31762;45.420;10.072;2022-07-10T17:07:05;1.27;;;0.65;;
44572;SDS011;31762;45.420;10.072;2022-07-10T17:12:08;0.50;;;0.30;;
44572;SDS011;31762;45.420;10.072;2022-07-10T17:17:10;0.30;;;0.20;;
44572;SDS011;31762;45.420;10.072;2022-07-10T17:22:12;1.65;;;0.60;;
44572;SDS011;31762;45.420;10.072;2022-07-10T17:27:14;1.30;;;0.30;;
44572;SDS011;31762;45.420;10.072;2022-07-10T17:32:17;0.63;;;0.30;;
44572;SDS011;31762;45.420;10.072;2022-07-10T17:37:20;0.70;;;0.30;;
44572;SDS011;31762;45.420;10.072;2022-07-10T17:42:22;0.60;;;0.30;;
44572;SDS011;31762;45.420;10.072;2022-07-10T17:47:24;0.60;;;0.40;;
44572;SDS011;31762;45.420;10.072;2022-07-10T17:52:25;0.50;;;0.20;;
44572;SDS011;31762;45.420;10.072;2022-07-10T17:57:27;1.13;;;0.20;;
44572;SDS011;31762;45.420;10.072;2022-07-10T18:02:29;1.23;;;0.33;;
44572;SDS011;31762;45.420;10.072;2022-07-10T18:07:31;0.57;;;0.30;;
44572;SDS011;31762;45.420;10.072;2022-07-10T18:12:32;0.47;;;0.43;;
44572;SDS011;31762;45.420;10.072;2022-07-10T18:17:34;0.52;;;0.20;;
44572;SDS011;31762;45.420;10.072;2022-07-10T18:22:36;0.60;;;0.30;;
44572;SDS011;31762;45.420;10.072;2022-07-10T18:27:38;0.30;;;0.10;;
44572;SDS011;31762;45.420;10.072;2022-07-10T18:32:40;0.30;;;0.20;;
44572;SDS011;31762;45.420;10.072;2022-07-10T18:37:41;1.10;;;0.30;;
44572;SDS011;31762;45.420;10.072;2022-07-10T18:42:43;0.73;;;0.60;;
44572;SDS011;31762;45.420;10.072;2022-07-10T18:47:45;0.80;;;0.40;;
44572;SDS011;31762;45.420;10.072;2022-07-10T18:52:47;0.75;;;0.25;;
44572;SDS011;31762;45.420;10.072;2022-07-10T18:57:48;2.67;;;0.50;;
44572;SDS011;31762;45.420;10.072;2022-07-10T19:02:50;1.92;;;0.60;;
44572;SDS011;31762;45.420;10.072;2022-07-10T19:07:52;1.13;;;0.52;;
44572;SDS011;31762;45.420;10.072;2022-07-10T19:12:54;4.17;;;1.73;;
44572;SDS011;31762;45.420;10.072;2022-07-10T19:17:56;1.30;;;0.40;;
44572;SDS011;31762;45.420;10.072;2022-07-10T19:22:58;1.73;;;0.60;;
44572;SDS011;31762;45.420;10.072;2022-07-10T19:27:59;1.00;;;0.60;;
44572;SDS011;31762;45.420;10.072;2022-07-10T19:33:02;2.47;;;0.80;;
44572;SDS011;31762;45.420;10.072;2022-07-10T19:38:05;1.97;;;0.63;;
44572;SDS011;31762;45.420;10.072;2022-07-10T19:43:06;1.35;;;0.60;;
44572;SDS011;31762;45.420;10.072;2022-07-10T19:48:08;3.40;;;1.00;;
44572;SDS011;31762;45.420;10.072;2022-07-10T19:53:10;14.15;;;5.68;;
44572;SDS011;31762;45.420;10.072;2022-07-10T19:58:12;3.03;;;1.00;;
44572;SDS011;31762;45.420;10.072;2022-07-10T20:03:14;1.40;;;0.97;;
44572;SDS011;31762;45.420;10.072;2022-07-10T20:08:15;2.22;;;0.90;;
44572;SDS011;31762;45.420;10.072;2022-07-10T20:13:17;5.30;;;1.40;;
44572;SDS011;31762;45.420;10.072;2022-07-10T20:18:19;2.22;;;1.45;;
44572;SDS011;31762;45.420;10.072;2022-07-10T20:23:22;3.17;;;1.98;;
44572;SDS011;31762;45.420;10.072;2022-07-10T20:28:23;2.40;;;2.20;;
44572;SDS011;31762;45.420;10.072;2022-07-10T20:33:25;2.35;;;2.13;;
44572;SDS011;31762;45.420;10.072;2022-07-10T20:38:27;3.50;;;1.88;;
44572;SDS011;31762;45.420;10.072;2022-07-10T20:43:29;3.80;;;1.77;;
44572;SDS011;31762;45.420;10.072;2022-07-10T20:48:31;3.40;;;1.67;;
44572;SDS011;31762;45.420;10.072;2022-07-10T20:53:33;2.70;;;1.40;;
44572;SDS011;31762;45.420;10.072;2022-07-10T20:58:34;2.08;;;1.20;;
44572;SDS011;31762;45.420;10.072;2022-07-10T21:03:36;3.60;;;1.50;;
44572;SDS011;31762;45.420;10.072;2022-07-10T21:08:38;2.90;;;1.27;;
44572;SDS011;31762;45.420;10.072;2022-07-10T21:13:40;2.40;;;1.30;;
44572;SDS011;31762;45.420;10.072;2022-07-10T21:18:42;2.10;;;0.80;;
44572;SDS011;31762;45.420;10.072;2022-07-10T21:23:44;1.00;;;0.90;;
44572;SDS011;31762;45.420;10.072;2022-07-10T21:28:47;1.92;;;0.85;;
44572;SDS011;31762;45.420;10.072;2022-07-10T21:33:49;1.10;;;0.43;;
44572;SDS011;31762;45.420;10.072;2022-07-10T21:38:50;2.00;;;0.50;;
44572;SDS011;31762;45.420;10.072;2022-07-10T21:43:59;1.63;;;0.60;;
44572;SDS011;31762;45.420;10.072;2022-07-10T21:49:01;2.00;;;0.73;;
44572;SDS011;31762;45.420;10.072;2022-07-10T21:54:02;2.73;;;1.00;;
44572;SDS011;31762;45.420;10.072;2022-07-10T21:59:04;1.75;;;0.57;;
44572;SDS011;31762;45.420;10.072;2022-07-10T22:04:06;2.58;;;1.13;;
44572;SDS011;31762;45.420;10.072;2022-07-10T22:09:08;3.07;;;0.60;;
44572;SDS011;31762;45.420;10.072;2022-07-10T22:14:09;0.90;;;0.45;;
44572;SDS011;31762;45.420;10.072;2022-07-10T22:19:11;2.60;;;0.50;;
44572;SDS011;31762;45.420;10.072;2022-07-10T22:24:13;1.85;;;0.60;;
44572;SDS011;31762;45.420;10.072;2022-07-10T22:29:15;2.83;;;1.15;;
44572;SDS011;31762;45.420;10.072;2022-07-10T22:34:16;1.83;;;0.47;;
44572;SDS011;31762;45.420;10.072;2022-07-10T22:39:18;1.90;;;0.60;;
44572;SDS011;31762;45.420;10.072;2022-07-10T22:44:20;1.35;;;0.30;;
44572;SDS011;31762;45.420;10.072;2022-07-10T22:49:22;1.75;;;0.30;;
44572;SDS011;31762;45.420;10.072;2022-07-10T22:54:23;0.80;;;0.30;;
44572;SDS011;31762;45.420;10.072;2022-07-10T22:59:25;0.75;;;0.30;;
44572;SDS011;31762;45.420;10.072;2022-07-10T23:04:27;1.92;;;0.40;;
44572;SDS011;31762;45.420;10.072;2022-07-10T23:09:29;1.50;;;0.50;;
44572;SDS011;31762;45.420;10.072;2022-07-10T23:14:30;0.57;;;0.20;;
44572;SDS011;31762;45.420;10.072;2022-07-10T23:19:32;1.05;;;0.47;;
44572;SDS011;31762;45.420;10.072;2022-07-10T23:24:34;1.80;;;0.40;;
44572;SDS011;31762;45.420;10.072;2022-07-10T23:29:36;0.30;;;0.20;;
44572;SDS011;31762;45.420;10.072;2022-07-10T23:34:38;1.35;;;0.40;;
44572;SDS011;31762;45.420;10.072;2022-07-10T23:39:41;2.10;;;0.50;;
44572;SDS011;31762;45.420;10.072;2022-07-10T23:44:43;1.20;;;0.40;;
44572;SDS011;31762;45.420;10.072;2022-07-10T23:49:44;0.80;;;0.40;;
44572;SDS011;31762;45.420;10.072;2022-07-10T23:54:46;0.77;;;0.45;;
44572;SDS011;31762;45.420;10.072;2022-07-10T23:59:48;1.58;;;0.47;;
